Greenmount, Maryland
Current Conditions -  °F | °C
As of 6:15 AM on Friday 24 Oct 2014 (Local Time) from KDMW Reporting Station
Clear Clear  
Wind Chill: 52°   Ceiling: Unl
Heat Index: 52°   Visibility: 10mi
Dew Point: 45°   Wind: 10mph
Humidity: 76%   Direction: 320°NW
Pressure: 29.93"   Gusts: 16mph
Location:  39.6206°N, 76.8429°W
Report Text: KDMW 241015Z AUTO 32009G14KT 10SM CLR 11/07 A2993 RMK AO2
Loading
Personal Weather Stations






























Interactive Weather Map
Tropical Storm Tracking
New forecast layout! Learn more

10-Day Weather Forecast

Advertisements
Track Severe Weather on mobile